Ischia Jet — IOBI — position and weather

sailwx.info

Track history (hours):
 
Tides and Currents Weather Stations Pressure Air Temp Water Temp Dewpoint Dewpoint Depression Visibility Wind Speed Wind Dir Waves Ship Positions

Ischia Jet

Last reported at 2014-Jul-22 16:33 UTC. Time now 2014-Jul-23 03:16 UTC.
Position N 40°41' E 014°24'.

Length 42 m; draft 1.2 m.

Type: Passenger vessel. MMSI: 247048700.

Date/timePositionNaut miles runAvg speedWind from/ knotsBaromVisibWave heightAir tempDewpointWater temp
2014-Jul-22 16:33N 40°41' E 014°24'8 2.8
2014-Jul-22 13:31N 40°36' E 014°15'13 6.6
2014-Jul-22 11:28N 40°50' E 014°17'1617.7
2014-Jul-22 10:33N 40°33' E 014°14'4 4.4
2014-Jul-22 09:33N 40°34' E 014°20'8 7.4
2014-Jul-22 08:30N 40°35' E 014°30'1212.4
2014-Jul-22 07:33N 40°34' E 014°15'13 8.9
2014-Jul-22 06:06N 40°42' E 014°29'0 0.0
2014-Jul-21 17:33N 40°42' E 014°28'1110.7
2014-Jul-21 16:34N 40°48' E 014°17'1514.8
2014-Jul-21 15:33N 40°33' E 014°14'1511.1
2014-Jul-21 14:10N 40°49' E 014°17'1422.1
2014-Jul-21 13:33N 40°35' E 014°15'2 1.8
2014-Jul-21 12:33N 40°33' E 014°14'3 3.0
2014-Jul-21 11:33N 40°36' E 014°16'1311.0
2014-Jul-21 10:21N 40°49' E 014°17'1619.4
2014-Jul-21 09:32N 40°33' E 014°14'0 0.1
2014-Jul-21 08:33N 40°33' E 014°14'7 7.3
2014-Jul-21 07:33N 40°38' E 014°22'1 0.8
2014-Jul-21 06:33N 40°38' E 014°23'4 3.6
2014-Jul-21 05:33N 40°36' E 014°18'9 7.7
2014-Jul-21 04:20N 40°42' E 014°29'3 0.2
2014-Jul-20 16:34N 40°41' E 014°25'9 9.0
2014-Jul-20 15:33N 40°34' E 014°17'10 8.1
2014-Jul-20 14:22N 40°37' E 014°29'1214.7
2014-Jul-20 13:33N 40°33' E 014°14'7 7.1
2014-Jul-20 12:33N 40°38' E 014°21'7 7.1
2014-Jul-20 11:33N 40°33' E 014°14'0 0.0
2014-Jul-20 10:32N 40°33' E 014°14'2 0.8
2014-Jul-20 08:03N 40°34' E 014°17'2 3.7
2014-Jul-20 07:32N 40°33' E 014°14'1413.8
2014-Jul-20 06:33N 40°42' E 014°28'0 0.0
2014-Jul-19 15:10N 40°42' E 014°29'6 9.6
2014-Jul-19 14:33N 40°38' E 014°23'7 7.4
2014-Jul-19 13:33N 40°34' E 014°15'1712.7
2014-Jul-19 12:15N 40°50' E 014°15'0 0.4
2014-Jul-19 11:29N 40°50' E 014°16'1718.2
2014-Jul-19 10:33N 40°33' E 014°14'0 0.0
2014-Jul-19 09:32N 40°33' E 014°14'0 0.0
2014-Jul-19 08:33N 40°33' E 014°14'8 7.6
2014-Jul-19 07:33N 40°38' E 014°23'0 0.0
2014-Jul-19 06:33N 40°38' E 014°23'3 3.0
2014-Jul-19 05:33N 40°37' E 014°19'9 8.7
2014-Jul-19 04:33N 40°42' E 014°29'1 0.1
2014-Jul-18 16:33N 40°42' E 014°27'1211.6
2014-Jul-18 15:33N 40°34' E 014°16'1 0.6
2014-Jul-18 13:33N 40°33' E 014°15'1712.6
2014-Jul-18 12:13N 40°50' E 014°15'1 0.8
2014-Jul-18 11:29N 40°50' E 014°16'1718.1
2014-Jul-18 10:33N 40°33' E 014°14'5 1.9
2014-Jul-18 08:08N 40°34' E 014°20'5 7.7
2014-Jul-18 07:32N 40°33' E 014°14'1412.9
2014-Jul-18 06:29N 40°42' E 014°29'0 0.1
2014-Jul-18 05:32N 40°42' E 014°29'6 0.4
2014-Jul-17 14:33N 40°38' E 014°23'8 7.8
2014-Jul-17 13:33N 40°33' E 014°14'1714.5
2014-Jul-17 12:24N 40°50' E 014°16'1 0.7
2014-Jul-17 11:26N 40°50' E 014°16'1718.6
2014-Jul-17 10:32N 40°33' E 014°14'0 0.0
2014-Jul-17 09:33N 40°33' E 014°14'0 0.0
2014-Jul-17 08:32N 40°33' E 014°14'8 7.4
2014-Jul-17 07:29N 40°38' E 014°23'0 0.0
2014-Jul-17 06:26N 40°38' E 014°23'3 3.3
2014-Jul-17 05:33N 40°37' E 014°19'9 8.7
2014-Jul-17 04:33N 40°42' E 014°29'3 0.3
2014-Jul-16 16:33N 40°40' E 014°25'9 8.7
2014-Jul-16 15:33N 40°34' E 014°17'2 1.0
2014-Jul-16 13:33N 40°33' E 014°14'0 0.3
2014-Jul-16 12:32N 40°34' E 014°14'0 0.0
2014-Jul-16 11:33N 40°34' E 014°14'0 0.0
2014-Jul-16 10:33N 40°34' E 014°14'7 6.8
2014-Jul-16 09:33N 40°34' E 014°23'4 2.6
2014-Jul-16 08:08N 40°34' E 014°18'3 4.9
2014-Jul-16 07:34N 40°33' E 014°14'1413.5
2014-Jul-16 06:33N 40°42' E 014°28'1 0.5
2014-Jul-16 05:32N 40°42' E 014°29'6 0.4
2014-Jul-15 14:33N 40°38' E 014°23'7 7.4
2014-Jul-15 13:33N 40°34' E 014°15'16 7.5
2014-Jul-15 11:27N 40°49' E 014°17'1617.9
2014-Jul-15 10:33N 40°33' E 014°14'1311.4
2014-Jul-15 09:28N 40°46' E 014°18'4 4.2
2014-Jul-15 08:33N 40°49' E 014°17'1212.0
2014-Jul-15 07:31N 40°38' E 014°23'0 0.0
2014-Jul-15 06:33N 40°38' E 014°23'2 2.3
2014-Jul-15 05:33N 40°38' E 014°20'8 6.9
2014-Jul-15 04:24N 40°42' E 014°29'3 0.3
2014-Jul-14 16:33N 40°40' E 014°25'9 9.3
2014-Jul-14 15:33N 40°34' E 014°16'1 0.6
2014-Jul-14 13:30N 40°33' E 014°14'7 7.8
2014-Jul-14 12:33N 40°38' E 014°22'7 7.1
2014-Jul-14 11:31N 40°33' E 014°14'0 0.0
2014-Jul-14 10:33N 40°33' E 014°14'5 4.7
2014-Jul-14 09:32N 40°34' E 014°21'2 1.4
2014-Jul-14 08:06N 40°34' E 014°18'3 5.0
2014-Jul-14 07:33N 40°33' E 014°14'8 0.5
2014-Jul-13 14:32N 40°38' E 014°23'8 7.8
2014-Jul-13 13:32N 40°33' E 014°14'1 0.5
2014-Jul-13 11:18N 40°33' E 014°16'7 9.8
2014-Jul-13 10:33N 40°40' E 014°16'9 7.2
2014-Jul-13 09:18N 40°49' E 014°17'1621.2
2014-Jul-13 08:33N 40°33' E 014°14'8 7.7
2014-Jul-13 07:33N 40°38' E 014°23'0 0.2
2014-Jul-13 06:33N 40°38' E 014°23'  
Track history (hours):
 
Tides and Currents Weather Stations Pressure Air Temp Water Temp Dewpoint Dewpoint Depression Visibility Wind Speed Wind Dir Waves Ship Positions

Ischia Jet

Last reported at 2014-Jul-22 16:33 UTC. Time now 2014-Jul-23 03:16 UTC.
Position N 40°41' E 014°24'.

Length 42 m; draft 1.2 m.

Type: Passenger vessel. MMSI: 247048700.

Date/timePositionNaut miles runAvg speedWind from/ knotsBaromVisibWave heightAir tempDewpointWater temp
2014-Jul-22 16:33N 40°41' E 014°24'8 2.8
2014-Jul-22 13:31N 40°36' E 014°15'13 6.6
2014-Jul-22 11:28N 40°50' E 014°17'1617.7
2014-Jul-22 10:33N 40°33' E 014°14'4 4.4
2014-Jul-22 09:33N 40°34' E 014°20'8 7.4
2014-Jul-22 08:30N 40°35' E 014°30'1212.4
2014-Jul-22 07:33N 40°34' E 014°15'13 8.9
2014-Jul-22 06:06N 40°42' E 014°29'0 0.0
2014-Jul-21 17:33N 40°42' E 014°28'1110.7
2014-Jul-21 16:34N 40°48' E 014°17'1514.8
2014-Jul-21 15:33N 40°33' E 014°14'1511.1
2014-Jul-21 14:10N 40°49' E 014°17'1422.1
2014-Jul-21 13:33N 40°35' E 014°15'2 1.8
2014-Jul-21 12:33N 40°33' E 014°14'3 3.0
2014-Jul-21 11:33N 40°36' E 014°16'1311.0
2014-Jul-21 10:21N 40°49' E 014°17'1619.4
2014-Jul-21 09:32N 40°33' E 014°14'0 0.1
2014-Jul-21 08:33N 40°33' E 014°14'7 7.3
2014-Jul-21 07:33N 40°38' E 014°22'1 0.8
2014-Jul-21 06:33N 40°38' E 014°23'4 3.6
2014-Jul-21 05:33N 40°36' E 014°18'9 7.7
2014-Jul-21 04:20N 40°42' E 014°29'3 0.2
2014-Jul-20 16:34N 40°41' E 014°25'9 9.0
2014-Jul-20 15:33N 40°34' E 014°17'10 8.1
2014-Jul-20 14:22N 40°37' E 014°29'1214.7
2014-Jul-20 13:33N 40°33' E 014°14'7 7.1
2014-Jul-20 12:33N 40°38' E 014°21'7 7.1
2014-Jul-20 11:33N 40°33' E 014°14'0 0.0
2014-Jul-20 10:32N 40°33' E 014°14'2 0.8
2014-Jul-20 08:03N 40°34' E 014°17'2 3.7
2014-Jul-20 07:32N 40°33' E 014°14'1413.8
2014-Jul-20 06:33N 40°42' E 014°28'0 0.0
2014-Jul-19 15:10N 40°42' E 014°29'6 9.6
2014-Jul-19 14:33N 40°38' E 014°23'7 7.4
2014-Jul-19 13:33N 40°34' E 014°15'1712.7
2014-Jul-19 12:15N 40°50' E 014°15'0 0.4
2014-Jul-19 11:29N 40°50' E 014°16'1718.2
2014-Jul-19 10:33N 40°33' E 014°14'0 0.0
2014-Jul-19 09:32N 40°33' E 014°14'0 0.0
2014-Jul-19 08:33N 40°33' E 014°14'8 7.6
2014-Jul-19 07:33N 40°38' E 014°23'0 0.0
2014-Jul-19 06:33N 40°38' E 014°23'3 3.0
2014-Jul-19 05:33N 40°37' E 014°19'9 8.7
2014-Jul-19 04:33N 40°42' E 014°29'1 0.1
2014-Jul-18 16:33N 40°42' E 014°27'1211.6
2014-Jul-18 15:33N 40°34' E 014°16'1 0.6
2014-Jul-18 13:33N 40°33' E 014°15'1712.6
2014-Jul-18 12:13N 40°50' E 014°15'1 0.8
2014-Jul-18 11:29N 40°50' E 014°16'1718.1
2014-Jul-18 10:33N 40°33' E 014°14'5 1.9
2014-Jul-18 08:08N 40°34' E 014°20'5 7.7
2014-Jul-18 07:32N 40°33' E 014°14'1412.9
2014-Jul-18 06:29N 40°42' E 014°29'0 0.1
2014-Jul-18 05:32N 40°42' E 014°29'6 0.4
2014-Jul-17 14:33N 40°38' E 014°23'8 7.8
2014-Jul-17 13:33N 40°33' E 014°14'1714.5
2014-Jul-17 12:24N 40°50' E 014°16'1 0.7
2014-Jul-17 11:26N 40°50' E 014°16'1718.6
2014-Jul-17 10:32N 40°33' E 014°14'0 0.0
2014-Jul-17 09:33N 40°33' E 014°14'0 0.0
2014-Jul-17 08:32N 40°33' E 014°14'8 7.4
2014-Jul-17 07:29N 40°38' E 014°23'0 0.0
2014-Jul-17 06:26N 40°38' E 014°23'3 3.3
2014-Jul-17 05:33N 40°37' E 014°19'9 8.7
2014-Jul-17 04:33N 40°42' E 014°29'3 0.3
2014-Jul-16 16:33N 40°40' E 014°25'9 8.7
2014-Jul-16 15:33N 40°34' E 014°17'2 1.0
2014-Jul-16 13:33N 40°33' E 014°14'0 0.3
2014-Jul-16 12:32N 40°34' E 014°14'0 0.0
2014-Jul-16 11:33N 40°34' E 014°14'0 0.0
2014-Jul-16 10:33N 40°34' E 014°14'7 6.8
2014-Jul-16 09:33N 40°34' E 014°23'4 2.6
2014-Jul-16 08:08N 40°34' E 014°18'3 4.9
2014-Jul-16 07:34N 40°33' E 014°14'1413.5
2014-Jul-16 06:33N 40°42' E 014°28'1 0.5
2014-Jul-16 05:32N 40°42' E 014°29'6 0.4
2014-Jul-15 14:33N 40°38' E 014°23'7 7.4
2014-Jul-15 13:33N 40°34' E 014°15'16 7.5
2014-Jul-15 11:27N 40°49' E 014°17'1617.9
2014-Jul-15 10:33N 40°33' E 014°14'1311.4
2014-Jul-15 09:28N 40°46' E 014°18'4 4.2
2014-Jul-15 08:33N 40°49' E 014°17'1212.0
2014-Jul-15 07:31N 40°38' E 014°23'0 0.0
2014-Jul-15 06:33N 40°38' E 014°23'2 2.3
2014-Jul-15 05:33N 40°38' E 014°20'8 6.9
2014-Jul-15 04:24N 40°42' E 014°29'3 0.3
2014-Jul-14 16:33N 40°40' E 014°25'9 9.3
2014-Jul-14 15:33N 40°34' E 014°16'1 0.6
2014-Jul-14 13:30N 40°33' E 014°14'7 7.8
2014-Jul-14 12:33N 40°38' E 014°22'7 7.1
2014-Jul-14 11:31N 40°33' E 014°14'0 0.0
2014-Jul-14 10:33N 40°33' E 014°14'5 4.7
2014-Jul-14 09:32N 40°34' E 014°21'2 1.4
2014-Jul-14 08:06N 40°34' E 014°18'3 5.0
2014-Jul-14 07:33N 40°33' E 014°14'8 0.5
2014-Jul-13 14:32N 40°38' E 014°23'8 7.8
2014-Jul-13 13:32N 40°33' E 014°14'1 0.5
2014-Jul-13 11:18N 40°33' E 014°16'7 9.8
2014-Jul-13 10:33N 40°40' E 014°16'9 7.2
2014-Jul-13 09:18N 40°49' E 014°17'1621.2
2014-Jul-13 08:33N 40°33' E 014°14'8 7.7
2014-Jul-13 07:33N 40°38' E 014°23'0 0.2
2014-Jul-13 06:33N 40°38' E 014°23'  

Dump ship's entire track history